sensor_id;sensor_type;location;lat;lon;timestamp;P1;durP1;ratioP1;P2;durP2;ratioP2
4652;SDS011;9900;48.738;9.306;2023-04-29T00:01:36;7.93;;;5.33;;
4652;SDS011;9900;48.738;9.306;2023-04-29T00:04:05;6.00;;;4.57;;
4652;SDS011;9900;48.738;9.306;2023-04-29T00:06:34;9.50;;;5.47;;
4652;SDS011;9900;48.738;9.306;2023-04-29T00:09:03;6.03;;;4.03;;
4652;SDS011;9900;48.738;9.306;2023-04-29T00:11:33;9.30;;;4.57;;
4652;SDS011;9900;48.738;9.306;2023-04-29T00:14:02;6.90;;;4.67;;
4652;SDS011;9900;48.738;9.306;2023-04-29T00:16:30;10.73;;;4.73;;
4652;SDS011;9900;48.738;9.306;2023-04-29T00:18:59;7.33;;;5.30;;
4652;SDS011;9900;48.738;9.306;2023-04-29T00:21:28;4.93;;;4.43;;
4652;SDS011;9900;48.738;9.306;2023-04-29T00:23:58;4.83;;;4.33;;
4652;SDS011;9900;48.738;9.306;2023-04-29T00:26:27;5.17;;;4.67;;
4652;SDS011;9900;48.738;9.306;2023-04-29T00:28:57;4.40;;;3.90;;
4652;SDS011;9900;48.738;9.306;2023-04-29T00:31:25;4.73;;;4.10;;
4652;SDS011;9900;48.738;9.306;2023-04-29T00:33:54;5.07;;;4.17;;
4652;SDS011;9900;48.738;9.306;2023-04-29T00:36:23;7.20;;;3.97;;
4652;SDS011;9900;48.738;9.306;2023-04-29T00:38:52;6.40;;;4.03;;
4652;SDS011;9900;48.738;9.306;2023-04-29T00:41:21;9.10;;;3.80;;
4652;SDS011;9900;48.738;9.306;2023-04-29T00:43:49;7.03;;;4.50;;
4652;SDS011;9900;48.738;9.306;2023-04-29T00:46:20;5.00;;;4.50;;
4652;SDS011;9900;48.738;9.306;2023-04-29T00:48:48;5.80;;;4.63;;
4652;SDS011;9900;48.738;9.306;2023-04-29T00:51:17;10.07;;;4.43;;
4652;SDS011;9900;48.738;9.306;2023-04-29T00:53:46;5.13;;;4.17;;
4652;SDS011;9900;48.738;9.306;2023-04-29T00:56:16;5.33;;;4.83;;
4652;SDS011;9900;48.738;9.306;2023-04-29T00:58:47;6.80;;;3.90;;
4652;SDS011;9900;48.738;9.306;2023-04-29T01:01:18;7.77;;;4.53;;
4652;SDS011;9900;48.738;9.306;2023-04-29T01:03:48;5.10;;;3.50;;
4652;SDS011;9900;48.738;9.306;2023-04-29T01:06:20;4.17;;;3.70;;
4652;SDS011;9900;48.738;9.306;2023-04-29T01:08:59;4.23;;;3.83;;
4652;SDS011;9900;48.738;9.306;2023-04-29T01:11:39;6.53;;;3.90;;
4652;SDS011;9900;48.738;9.306;2023-04-29T01:14:13;4.47;;;4.03;;
4652;SDS011;9900;48.738;9.306;2023-04-29T01:16:43;6.17;;;4.20;;
4652;SDS011;9900;48.738;9.306;2023-04-29T01:19:19;4.73;;;3.90;;
4652;SDS011;9900;48.738;9.306;2023-04-29T01:21:57;5.50;;;4.90;;
4652;SDS011;9900;48.738;9.306;2023-04-29T01:24:27;6.87;;;4.87;;
4652;SDS011;9900;48.738;9.306;2023-04-29T01:26:57;8.40;;;4.67;;
4652;SDS011;9900;48.738;9.306;2023-04-29T01:29:34;7.23;;;4.97;;
4652;SDS011;9900;48.738;9.306;2023-04-29T01:32:08;8.77;;;4.43;;
4652;SDS011;9900;48.738;9.306;2023-04-29T01:34:41;4.57;;;4.10;;
4652;SDS011;9900;48.738;9.306;2023-04-29T01:37:13;5.73;;;3.87;;
4652;SDS011;9900;48.738;9.306;2023-04-29T01:39:49;6.30;;;4.57;;
4652;SDS011;9900;48.738;9.306;2023-04-29T01:42:25;10.73;;;4.33;;
4652;SDS011;9900;48.738;9.306;2023-04-29T01:44:58;5.43;;;4.37;;
4652;SDS011;9900;48.738;9.306;2023-04-29T01:47:28;4.60;;;4.20;;
4652;SDS011;9900;48.738;9.306;2023-04-29T01:49:57;5.70;;;3.87;;
4652;SDS011;9900;48.738;9.306;2023-04-29T01:52:25;4.67;;;4.13;;
4652;SDS011;9900;48.738;9.306;2023-04-29T01:54:56;4.97;;;4.17;;
4652;SDS011;9900;48.738;9.306;2023-04-29T01:57:24;5.50;;;4.83;;
4652;SDS011;9900;48.738;9.306;2023-04-29T01:59:53;8.10;;;3.40;;
4652;SDS011;9900;48.738;9.306;2023-04-29T02:02:23;7.50;;;3.70;;
4652;SDS011;9900;48.738;9.306;2023-04-29T02:04:52;4.43;;;3.70;;
4652;SDS011;9900;48.738;9.306;2023-04-29T02:07:21;5.53;;;3.80;;
4652;SDS011;9900;48.738;9.306;2023-04-29T02:09:50;4.73;;;3.93;;
4652;SDS011;9900;48.738;9.306;2023-04-29T02:12:20;5.50;;;3.30;;
4652;SDS011;9900;48.738;9.306;2023-04-29T02:14:50;4.73;;;3.90;;
4652;SDS011;9900;48.738;9.306;2023-04-29T02:17:19;8.53;;;4.00;;
4652;SDS011;9900;48.738;9.306;2023-04-29T02:19:48;7.40;;;3.77;;
4652;SDS011;9900;48.738;9.306;2023-04-29T02:22:17;7.07;;;4.13;;
4652;SDS011;9900;48.738;9.306;2023-04-29T02:24:46;5.30;;;4.00;;
4652;SDS011;9900;48.738;9.306;2023-04-29T02:27:15;4.57;;;3.87;;
4652;SDS011;9900;48.738;9.306;2023-04-29T02:29:45;3.97;;;3.20;;
4652;SDS011;9900;48.738;9.306;2023-04-29T02:32:14;6.07;;;3.40;;
4652;SDS011;9900;48.738;9.306;2023-04-29T02:34:46;3.60;;;3.30;;
4652;SDS011;9900;48.738;9.306;2023-04-29T02:37:15;4.73;;;3.60;;
4652;SDS011;9900;48.738;9.306;2023-04-29T02:39:44;4.10;;;3.40;;
4652;SDS011;9900;48.738;9.306;2023-04-29T02:42:13;4.70;;;3.07;;
4652;SDS011;9900;48.738;9.306;2023-04-29T02:44:41;4.57;;;3.50;;
4652;SDS011;9900;48.738;9.306;2023-04-29T02:47:11;3.77;;;3.33;;
4652;SDS011;9900;48.738;9.306;2023-04-29T02:49:40;6.30;;;4.17;;
4652;SDS011;9900;48.738;9.306;2023-04-29T02:52:09;4.53;;;3.63;;
4652;SDS011;9900;48.738;9.306;2023-04-29T02:54:37;4.30;;;3.33;;
4652;SDS011;9900;48.738;9.306;2023-04-29T02:57:06;4.17;;;3.77;;
4652;SDS011;9900;48.738;9.306;2023-04-29T02:59:35;3.50;;;3.20;;
4652;SDS011;9900;48.738;9.306;2023-04-29T03:02:04;5.63;;;4.30;;
4652;SDS011;9900;48.738;9.306;2023-04-29T03:04:33;4.60;;;3.87;;
4652;SDS011;9900;48.738;9.306;2023-04-29T03:07:02;8.20;;;3.80;;
4652;SDS011;9900;48.738;9.306;2023-04-29T03:09:31;4.43;;;3.53;;
4652;SDS011;9900;48.738;9.306;2023-04-29T03:12:00;4.53;;;3.57;;
4652;SDS011;9900;48.738;9.306;2023-04-29T03:14:29;5.70;;;3.87;;
4652;SDS011;9900;48.738;9.306;2023-04-29T03:16:57;6.87;;;3.17;;
4652;SDS011;9900;48.738;9.306;2023-04-29T03:19:26;5.40;;;2.90;;
4652;SDS011;9900;48.738;9.306;2023-04-29T03:21:56;5.60;;;2.87;;
4652;SDS011;9900;48.738;9.306;2023-04-29T03:24:25;2.90;;;2.70;;
4652;SDS011;9900;48.738;9.306;2023-04-29T03:26:53;7.30;;;3.47;;
4652;SDS011;9900;48.738;9.306;2023-04-29T03:29:22;3.43;;;3.13;;
4652;SDS011;9900;48.738;9.306;2023-04-29T03:31:51;4.50;;;3.40;;
4652;SDS011;9900;48.738;9.306;2023-04-29T03:34:20;3.50;;;3.20;;
4652;SDS011;9900;48.738;9.306;2023-04-29T03:36:48;8.03;;;3.53;;
4652;SDS011;9900;48.738;9.306;2023-04-29T03:39:19;3.20;;;2.90;;
4652;SDS011;9900;48.738;9.306;2023-04-29T03:41:48;7.27;;;3.07;;
4652;SDS011;9900;48.738;9.306;2023-04-29T03:44:16;3.20;;;2.90;;
4652;SDS011;9900;48.738;9.306;2023-04-29T03:46:45;6.40;;;2.90;;
4652;SDS011;9900;48.738;9.306;2023-04-29T03:49:13;5.13;;;2.70;;
4652;SDS011;9900;48.738;9.306;2023-04-29T03:51:42;5.90;;;2.70;;
4652;SDS011;9900;48.738;9.306;2023-04-29T03:54:12;3.37;;;2.70;;
4652;SDS011;9900;48.738;9.306;2023-04-29T03:56:42;9.47;;;3.00;;
4652;SDS011;9900;48.738;9.306;2023-04-29T03:59:10;6.03;;;3.50;;
4652;SDS011;9900;48.738;9.306;2023-04-29T04:01:39;3.90;;;3.53;;
4652;SDS011;9900;48.738;9.306;2023-04-29T04:04:08;13.40;;;3.20;;
4652;SDS011;9900;48.738;9.306;2023-04-29T04:06:36;3.53;;;2.90;;
4652;SDS011;9900;48.738;9.306;2023-04-29T04:09:05;3.80;;;2.80;;
4652;SDS011;9900;48.738;9.306;2023-04-29T04:11:34;5.20;;;2.70;;
4652;SDS011;9900;48.738;9.306;2023-04-29T04:14:04;3.63;;;2.67;;
4652;SDS011;9900;48.738;9.306;2023-04-29T04:16:33;2.63;;;2.43;;
4652;SDS011;9900;48.738;9.306;2023-04-29T04:19:02;5.13;;;3.30;;
4652;SDS011;9900;48.738;9.306;2023-04-29T04:21:30;3.17;;;2.97;;
4652;SDS011;9900;48.738;9.306;2023-04-29T04:23:59;6.37;;;2.80;;
4652;SDS011;9900;48.738;9.306;2023-04-29T04:26:27;3.23;;;2.90;;
4652;SDS011;9900;48.738;9.306;2023-04-29T04:28:56;3.37;;;3.03;;
4652;SDS011;9900;48.738;9.306;2023-04-29T04:31:26;4.70;;;3.13;;
4652;SDS011;9900;48.738;9.306;2023-04-29T04:33:56;6.90;;;3.67;;
4652;SDS011;9900;48.738;9.306;2023-04-29T04:36:25;3.43;;;3.13;;
4652;SDS011;9900;48.738;9.306;2023-04-29T04:38:54;6.00;;;4.80;;
4652;SDS011;9900;48.738;9.306;2023-04-29T04:41:23;6.20;;;5.00;;
4652;SDS011;9900;48.738;9.306;2023-04-29T04:43:52;6.40;;;5.20;;
4652;SDS011;9900;48.738;9.306;2023-04-29T04:46:20;59.03;;;5.50;;
4652;SDS011;9900;48.738;9.306;2023-04-29T04:48:50;17.63;;;5.03;;
4652;SDS011;9900;48.738;9.306;2023-04-29T04:51:19;24.23;;;4.73;;
4652;SDS011;9900;48.738;9.306;2023-04-29T04:53:48;38.10;;;5.57;;
4652;SDS011;9900;48.738;9.306;2023-04-29T04:56:16;10.80;;;4.90;;
4652;SDS011;9900;48.738;9.306;2023-04-29T04:58:45;10.13;;;5.27;;
4652;SDS011;9900;48.738;9.306;2023-04-29T05:01:13;17.63;;;5.20;;
4652;SDS011;9900;48.738;9.306;2023-04-29T05:03:42;22.37;;;5.60;;
4652;SDS011;9900;48.738;9.306;2023-04-29T05:06:12;20.23;;;6.13;;
4652;SDS011;9900;48.738;9.306;2023-04-29T05:08:41;23.73;;;5.40;;
4652;SDS011;9900;48.738;9.306;2023-04-29T05:11:14;9.23;;;6.40;;
4652;SDS011;9900;48.738;9.306;2023-04-29T05:13:44;10.63;;;5.80;;
4652;SDS011;9900;48.738;9.306;2023-04-29T05:16:13;9.23;;;5.40;;
4652;SDS011;9900;48.738;9.306;2023-04-29T05:18:43;8.17;;;5.30;;
4652;SDS011;9900;48.738;9.306;2023-04-29T05:21:14;5.97;;;5.10;;
4652;SDS011;9900;48.738;9.306;2023-04-29T05:23:44;8.80;;;5.20;;
4652;SDS011;9900;48.738;9.306;2023-04-29T05:26:12;8.97;;;5.60;;
4652;SDS011;9900;48.738;9.306;2023-04-29T05:28:41;6.37;;;5.30;;
4652;SDS011;9900;48.738;9.306;2023-04-29T05:31:09;8.90;;;5.13;;
4652;SDS011;9900;48.738;9.306;2023-04-29T05:33:38;5.40;;;4.30;;
4652;SDS011;9900;48.738;9.306;2023-04-29T05:36:07;7.03;;;5.60;;
4652;SDS011;9900;48.738;9.306;2023-04-29T05:38:37;6.30;;;4.50;;
4652;SDS011;9900;48.738;9.306;2023-04-29T05:41:06;4.93;;;4.53;;
4652;SDS011;9900;48.738;9.306;2023-04-29T05:43:34;4.77;;;4.00;;
4652;SDS011;9900;48.738;9.306;2023-04-29T05:46:03;5.25;;;4.30;;
4652;SDS011;9900;48.738;9.306;2023-04-29T05:48:32;5.97;;;3.67;;
4652;SDS011;9900;48.738;9.306;2023-04-29T05:51:01;4.33;;;3.93;;
4652;SDS011;9900;48.738;9.306;2023-04-29T05:53:29;5.47;;;3.47;;
4652;SDS011;9900;48.738;9.306;2023-04-29T05:56:00;3.90;;;3.40;;
4652;SDS011;9900;48.738;9.306;2023-04-29T05:58:31;6.17;;;3.80;;
4652;SDS011;9900;48.738;9.306;2023-04-29T06:00:59;3.80;;;3.50;;
4652;SDS011;9900;48.738;9.306;2023-04-29T06:03:29;3.83;;;3.50;;
4652;SDS011;9900;48.738;9.306;2023-04-29T06:05:58;7.00;;;3.50;;
4652;SDS011;9900;48.738;9.306;2023-04-29T06:08:28;3.87;;;3.57;;
4652;SDS011;9900;48.738;9.306;2023-04-29T06:10:57;7.30;;;4.67;;
4652;SDS011;9900;48.738;9.306;2023-04-29T06:13:26;4.70;;;4.07;;
4652;SDS011;9900;48.738;9.306;2023-04-29T06:15:56;4.73;;;4.23;;
4652;SDS011;9900;48.738;9.306;2023-04-29T06:18:25;4.10;;;3.67;;
4652;SDS011;9900;48.738;9.306;2023-04-29T06:20:53;6.00;;;4.30;;
4652;SDS011;9900;48.738;9.306;2023-04-29T06:23:22;3.80;;;3.50;;
4652;SDS011;9900;48.738;9.306;2023-04-29T06:25:51;5.50;;;4.07;;
4652;SDS011;9900;48.738;9.306;2023-04-29T06:28:19;5.90;;;4.40;;
4652;SDS011;9900;48.738;9.306;2023-04-29T06:30:49;4.93;;;4.43;;
4652;SDS011;9900;48.738;9.306;2023-04-29T06:33:18;5.43;;;4.20;;
4652;SDS011;9900;48.738;9.306;2023-04-29T06:35:46;4.37;;;3.97;;
4652;SDS011;9900;48.738;9.306;2023-04-29T06:38:15;4.60;;;4.17;;
4652;SDS011;9900;48.738;9.306;2023-04-29T06:40:44;4.90;;;3.87;;
4652;SDS011;9900;48.738;9.306;2023-04-29T06:43:12;3.83;;;3.53;;
4652;SDS011;9900;48.738;9.306;2023-04-29T06:45:44;4.37;;;3.10;;
4652;SDS011;9900;48.738;9.306;2023-04-29T06:48:15;4.00;;;3.40;;
4652;SDS011;9900;48.738;9.306;2023-04-29T06:50:50;5.90;;;3.00;;
4652;SDS011;9900;48.738;9.306;2023-04-29T06:53:19;4.07;;;3.40;;
4652;SDS011;9900;48.738;9.306;2023-04-29T06:55:47;3.90;;;3.53;;
4652;SDS011;9900;48.738;9.306;2023-04-29T06:58:17;3.87;;;3.43;;
4652;SDS011;9900;48.738;9.306;2023-04-29T07:00:47;3.03;;;2.73;;
4652;SDS011;9900;48.738;9.306;2023-04-29T07:03:18;3.27;;;3.00;;
4652;SDS011;9900;48.738;9.306;2023-04-29T07:05:47;3.17;;;2.87;;
4652;SDS011;9900;48.738;9.306;2023-04-29T07:08:16;3.97;;;2.60;;
4652;SDS011;9900;48.738;9.306;2023-04-29T07:10:52;3.50;;;2.77;;
4652;SDS011;9900;48.738;9.306;2023-04-29T07:13:21;4.87;;;2.70;;
4652;SDS011;9900;48.738;9.306;2023-04-29T07:15:50;3.33;;;3.03;;
4652;SDS011;9900;48.738;9.306;2023-04-29T07:18:20;5.73;;;3.33;;
4652;SDS011;9900;48.738;9.306;2023-04-29T07:20:48;2.87;;;2.67;;
4652;SDS011;9900;48.738;9.306;2023-04-29T07:23:18;2.20;;;2.00;;
4652;SDS011;9900;48.738;9.306;2023-04-29T07:25:47;2.30;;;1.97;;
4652;SDS011;9900;48.738;9.306;2023-04-29T07:28:16;2.33;;;2.13;;
4652;SDS011;9900;48.738;9.306;2023-04-29T07:30:45;5.60;;;2.17;;
4652;SDS011;9900;48.738;9.306;2023-04-29T07:33:13;2.37;;;1.90;;
4652;SDS011;9900;48.738;9.306;2023-04-29T07:35:43;4.13;;;2.30;;
4652;SDS011;9900;48.738;9.306;2023-04-29T07:38:12;5.23;;;2.33;;
4652;SDS011;9900;48.738;9.306;2023-04-29T07:40:41;2.57;;;2.07;;
4652;SDS011;9900;48.738;9.306;2023-04-29T07:43:11;2.73;;;1.90;;
4652;SDS011;9900;48.738;9.306;2023-04-29T07:45:39;2.17;;;1.90;;
4652;SDS011;9900;48.738;9.306;2023-04-29T07:48:08;2.30;;;2.20;;
4652;SDS011;9900;48.738;9.306;2023-04-29T07:50:37;5.10;;;2.27;;
4652;SDS011;9900;48.738;9.306;2023-04-29T07:53:07;3.70;;;1.90;;
4652;SDS011;9900;48.738;9.306;2023-04-29T07:55:36;2.70;;;2.03;;
4652;SDS011;9900;48.738;9.306;2023-04-29T07:58:04;5.93;;;2.00;;
4652;SDS011;9900;48.738;9.306;2023-04-29T08:00:33;2.17;;;2.03;;
4652;SDS011;9900;48.738;9.306;2023-04-29T08:03:02;3.33;;;1.80;;
4652;SDS011;9900;48.738;9.306;2023-04-29T08:05:31;2.77;;;1.90;;
4652;SDS011;9900;48.738;9.306;2023-04-29T08:08:00;2.23;;;2.00;;
4652;SDS011;9900;48.738;9.306;2023-04-29T08:10:30;3.50;;;1.40;;
4652;SDS011;9900;48.738;9.306;2023-04-29T08:12:59;2.20;;;1.70;;
4652;SDS011;9900;48.738;9.306;2023-04-29T08:15:28;1.97;;;1.60;;
4652;SDS011;9900;48.738;9.306;2023-04-29T08:17:56;4.10;;;1.60;;
4652;SDS011;9900;48.738;9.306;2023-04-29T08:20:25;2.60;;;1.90;;
4652;SDS011;9900;48.738;9.306;2023-04-29T08:22:56;2.27;;;1.60;;
4652;SDS011;9900;48.738;9.306;2023-04-29T08:25:25;1.73;;;1.63;;
4652;SDS011;9900;48.738;9.306;2023-04-29T08:27:56;2.20;;;1.50;;
4652;SDS011;9900;48.738;9.306;2023-04-29T08:30:25;2.07;;;1.87;;
4652;SDS011;9900;48.738;9.306;2023-04-29T08:32:54;1.80;;;1.70;;
4652;SDS011;9900;48.738;9.306;2023-04-29T08:35:23;2.83;;;1.77;;
4652;SDS011;9900;48.738;9.306;2023-04-29T08:37:52;4.63;;;1.90;;
4652;SDS011;9900;48.738;9.306;2023-04-29T08:40:20;5.90;;;2.03;;
4652;SDS011;9900;48.738;9.306;2023-04-29T08:42:49;2.90;;;1.60;;
4652;SDS011;9900;48.738;9.306;2023-04-29T08:45:19;1.70;;;1.60;;
4652;SDS011;9900;48.738;9.306;2023-04-29T08:47:50;1.50;;;1.40;;
4652;SDS011;9900;48.738;9.306;2023-04-29T08:50:20;5.33;;;1.70;;
4652;SDS011;9900;48.738;9.306;2023-04-29T08:52:48;1.70;;;1.60;;
4652;SDS011;9900;48.738;9.306;2023-04-29T08:55:17;3.73;;;1.40;;
4652;SDS011;9900;48.738;9.306;2023-04-29T08:57:46;1.73;;;1.63;;
4652;SDS011;9900;48.738;9.306;2023-04-29T09:00:16;1.90;;;1.80;;
4652;SDS011;9900;48.738;9.306;2023-04-29T09:02:48;1.80;;;1.70;;
4652;SDS011;9900;48.738;9.306;2023-04-29T09:05:18;2.03;;;1.77;;
4652;SDS011;9900;48.738;9.306;2023-04-29T09:07:48;1.50;;;1.40;;
4652;SDS011;9900;48.738;9.306;2023-04-29T09:10:18;5.77;;;2.40;;
4652;SDS011;9900;48.738;9.306;2023-04-29T09:12:47;2.37;;;2.10;;
4652;SDS011;9900;48.738;9.306;2023-04-29T09:15:16;2.90;;;2.07;;
4652;SDS011;9900;48.738;9.306;2023-04-29T09:17:45;1.93;;;1.50;;
4652;SDS011;9900;48.738;9.306;2023-04-29T09:20:25;2.50;;;2.40;;
4652;SDS011;9900;48.738;9.306;2023-04-29T09:22:56;1.90;;;1.80;;
4652;SDS011;9900;48.738;9.306;2023-04-29T09:25:26;3.13;;;2.50;;
4652;SDS011;9900;48.738;9.306;2023-04-29T09:27:55;5.77;;;2.27;;
4652;SDS011;9900;48.738;9.306;2023-04-29T09:30:24;2.23;;;2.03;;
4652;SDS011;9900;48.738;9.306;2023-04-29T09:33:04;2.87;;;2.60;;
4652;SDS011;9900;48.738;9.306;2023-04-29T09:35:34;2.50;;;2.40;;
4652;SDS011;9900;48.738;9.306;2023-04-29T09:38:07;3.93;;;2.30;;
4652;SDS011;9900;48.738;9.306;2023-04-29T09:40:37;5.87;;;2.40;;
4652;SDS011;9900;48.738;9.306;2023-04-29T09:43:24;5.90;;;2.57;;
4652;SDS011;9900;48.738;9.306;2023-04-29T09:45:53;6.77;;;2.47;;
4652;SDS011;9900;48.738;9.306;2023-04-29T09:48:24;2.13;;;1.93;;
4652;SDS011;9900;48.738;9.306;2023-04-29T09:50:58;3.43;;;2.20;;
4652;SDS011;9900;48.738;9.306;2023-04-29T09:53:29;2.20;;;2.10;;
4652;SDS011;9900;48.738;9.306;2023-04-29T09:55:58;3.50;;;1.97;;
4652;SDS011;9900;48.738;9.306;2023-04-29T09:58:28;1.77;;;1.60;;
4652;SDS011;9900;48.738;9.306;2023-04-29T10:01:00;3.37;;;1.90;;
4652;SDS011;9900;48.738;9.306;2023-04-29T10:03:32;1.93;;;1.60;;
4652;SDS011;9900;48.738;9.306;2023-04-29T10:06:02;3.10;;;2.27;;
4652;SDS011;9900;48.738;9.306;2023-04-29T10:08:32;1.97;;;1.80;;
4652;SDS011;9900;48.738;9.306;2023-04-29T10:11:02;3.73;;;2.80;;
4652;SDS011;9900;48.738;9.306;2023-04-29T10:13:33;2.90;;;2.53;;
4652;SDS011;9900;48.738;9.306;2023-04-29T10:16:07;5.10;;;2.13;;
4652;SDS011;9900;48.738;9.306;2023-04-29T10:18:43;1.90;;;1.80;;
4652;SDS011;9900;48.738;9.306;2023-04-29T10:21:17;2.30;;;2.10;;
4652;SDS011;9900;48.738;9.306;2023-04-29T10:23:49;2.93;;;2.50;;
4652;SDS011;9900;48.738;9.306;2023-04-29T10:26:18;2.20;;;2.00;;
4652;SDS011;9900;48.738;9.306;2023-04-29T10:28:47;2.17;;;1.87;;
4652;SDS011;9900;48.738;9.306;2023-04-29T10:31:17;1.90;;;1.80;;
4652;SDS011;9900;48.738;9.306;2023-04-29T10:33:49;2.60;;;1.97;;
4652;SDS011;9900;48.738;9.306;2023-04-29T10:36:18;1.40;;;1.30;;
4652;SDS011;9900;48.738;9.306;2023-04-29T10:38:48;1.87;;;1.77;;
4652;SDS011;9900;48.738;9.306;2023-04-29T10:41:19;2.57;;;1.50;;
4652;SDS011;9900;48.738;9.306;2023-04-29T10:43:51;3.57;;;2.00;;
4652;SDS011;9900;48.738;9.306;2023-04-29T10:46:20;3.80;;;1.90;;
4652;SDS011;9900;48.738;9.306;2023-04-29T10:48:55;3.20;;;2.40;;
4652;SDS011;9900;48.738;9.306;2023-04-29T10:51:29;5.33;;;1.80;;
4652;SDS011;9900;48.738;9.306;2023-04-29T10:54:00;1.73;;;1.63;;
4652;SDS011;9900;48.738;9.306;2023-04-29T10:56:40;2.53;;;1.87;;
4652;SDS011;9900;48.738;9.306;2023-04-29T10:59:10;2.23;;;2.00;;
4652;SDS011;9900;48.738;9.306;2023-04-29T11:01:44;1.80;;;1.70;;
4652;SDS011;9900;48.738;9.306;2023-04-29T11:04:18;1.83;;;1.60;;
4652;SDS011;9900;48.738;9.306;2023-04-29T11:06:50;3.00;;;1.60;;
4652;SDS011;9900;48.738;9.306;2023-04-29T11:09:19;3.07;;;1.93;;
4652;SDS011;9900;48.738;9.306;2023-04-29T11:11:56;1.63;;;1.53;;
4652;SDS011;9900;48.738;9.306;2023-04-29T11:14:30;1.67;;;1.57;;
4652;SDS011;9900;48.738;9.306;2023-04-29T11:17:03;2.40;;;1.50;;
4652;SDS011;9900;48.738;9.306;2023-04-29T11:19:34;1.80;;;1.70;;
4652;SDS011;9900;48.738;9.306;2023-04-29T11:22:07;2.07;;;1.90;;
4652;SDS011;9900;48.738;9.306;2023-04-29T11:24:48;3.07;;;2.10;;
4652;SDS011;9900;48.738;9.306;2023-04-29T11:27:18;4.20;;;2.20;;
4652;SDS011;9900;48.738;9.306;2023-04-29T11:29:51;3.70;;;2.13;;
4652;SDS011;9900;48.738;9.306;2023-04-29T11:32:25;10.27;;;2.30;;
4652;SDS011;9900;48.738;9.306;2023-04-29T11:34:56;1.83;;;1.60;;
4652;SDS011;9900;48.738;9.306;2023-04-29T11:37:34;3.57;;;1.53;;
4652;SDS011;9900;48.738;9.306;2023-04-29T11:40:04;2.10;;;2.00;;
4652;SDS011;9900;48.738;9.306;2023-04-29T11:42:33;2.03;;;1.70;;
4652;SDS011;9900;48.738;9.306;2023-04-29T11:45:03;2.17;;;1.80;;
4652;SDS011;9900;48.738;9.306;2023-04-29T11:47:33;2.13;;;1.70;;
4652;SDS011;9900;48.738;9.306;2023-04-29T11:50:04;3.63;;;1.40;;
4652;SDS011;9900;48.738;9.306;2023-04-29T11:52:34;2.80;;;1.40;;
4652;SDS011;9900;48.738;9.306;2023-04-29T11:55:04;2.80;;;1.60;;
4652;SDS011;9900;48.738;9.306;2023-04-29T11:57:35;2.07;;;1.80;;
4652;SDS011;9900;48.738;9.306;2023-04-29T12:00:07;2.27;;;1.60;;
4652;SDS011;9900;48.738;9.306;2023-04-29T12:02:36;1.63;;;1.53;;
4652;SDS011;9900;48.738;9.306;2023-04-29T12:05:07;2.50;;;1.70;;
4652;SDS011;9900;48.738;9.306;2023-04-29T12:07:36;1.67;;;1.57;;
4652;SDS011;9900;48.738;9.306;2023-04-29T12:10:07;3.63;;;2.13;;
4652;SDS011;9900;48.738;9.306;2023-04-29T12:12:37;2.20;;;2.00;;
4652;SDS011;9900;48.738;9.306;2023-04-29T12:15:07;3.10;;;2.30;;
4652;SDS011;9900;48.738;9.306;2023-04-29T12:17:37;3.40;;;2.27;;
4652;SDS011;9900;48.738;9.306;2023-04-29T12:20:08;3.40;;;2.10;;
4652;SDS011;9900;48.738;9.306;2023-04-29T12:22:40;5.77;;;2.30;;
4652;SDS011;9900;48.738;9.306;2023-04-29T12:25:10;4.60;;;2.40;;
4652;SDS011;9900;48.738;9.306;2023-04-29T12:27:38;4.10;;;2.40;;
4652;SDS011;9900;48.738;9.306;2023-04-29T12:30:09;2.40;;;2.20;;
4652;SDS011;9900;48.738;9.306;2023-04-29T12:32:38;3.23;;;3.03;;
4652;SDS011;9900;48.738;9.306;2023-04-29T12:35:14;3.23;;;2.93;;
4652;SDS011;9900;48.738;9.306;2023-04-29T12:37:46;3.50;;;3.20;;
4652;SDS011;9900;48.738;9.306;2023-04-29T12:40:17;3.70;;;2.90;;
4652;SDS011;9900;48.738;9.306;2023-04-29T12:42:47;2.77;;;2.57;;
4652;SDS011;9900;48.738;9.306;2023-04-29T12:45:28;3.73;;;2.70;;
4652;SDS011;9900;48.738;9.306;2023-04-29T12:47:58;3.53;;;3.10;;
4652;SDS011;9900;48.738;9.306;2023-04-29T12:50:30;7.30;;;2.47;;
4652;SDS011;9900;48.738;9.306;2023-04-29T12:53:00;2.80;;;2.17;;
4652;SDS011;9900;48.738;9.306;2023-04-29T12:55:30;3.63;;;2.20;;
4652;SDS011;9900;48.738;9.306;2023-04-29T12:58:00;3.60;;;2.73;;
4652;SDS011;9900;48.738;9.306;2023-04-29T13:00:30;2.80;;;2.60;;
4652;SDS011;9900;48.738;9.306;2023-04-29T13:02:58;3.00;;;2.80;;
4652;SDS011;9900;48.738;9.306;2023-04-29T13:05:28;8.50;;;2.70;;
4652;SDS011;9900;48.738;9.306;2023-04-29T13:07:58;3.03;;;2.70;;
4652;SDS011;9900;48.738;9.306;2023-04-29T13:10:26;3.00;;;2.70;;
4652;SDS011;9900;48.738;9.306;2023-04-29T13:12:55;5.30;;;3.70;;
4652;SDS011;9900;48.738;9.306;2023-04-29T13:15:24;4.27;;;2.87;;
4652;SDS011;9900;48.738;9.306;2023-04-29T13:17:53;7.27;;;3.30;;
4652;SDS011;9900;48.738;9.306;2023-04-29T13:20:22;4.90;;;2.60;;
4652;SDS011;9900;48.738;9.306;2023-04-29T13:22:52;3.30;;;3.00;;
4652;SDS011;9900;48.738;9.306;2023-04-29T13:25:21;3.90;;;3.43;;
4652;SDS011;9900;48.738;9.306;2023-04-29T13:27:49;4.80;;;3.53;;
4652;SDS011;9900;48.738;9.306;2023-04-29T13:30:18;4.67;;;3.03;;
4652;SDS011;9900;48.738;9.306;2023-04-29T13:32:47;3.50;;;2.90;;
4652;SDS011;9900;48.738;9.306;2023-04-29T13:35:22;5.00;;;3.70;;
4652;SDS011;9900;48.738;9.306;2023-04-29T13:37:52;6.60;;;3.77;;
4652;SDS011;9900;48.738;9.306;2023-04-29T13:40:21;5.10;;;3.50;;
4652;SDS011;9900;48.738;9.306;2023-04-29T13:42:54;4.10;;;3.70;;
4652;SDS011;9900;48.738;9.306;2023-04-29T13:45:32;4.60;;;4.20;;
4652;SDS011;9900;48.738;9.306;2023-04-29T13:48:05;6.30;;;4.27;;
4652;SDS011;9900;48.738;9.306;2023-04-29T13:50:55;4.53;;;3.80;;
4652;SDS011;9900;48.738;9.306;2023-04-29T13:53:44;7.80;;;4.87;;
4652;SDS011;9900;48.738;9.306;2023-04-29T13:56:16;5.17;;;4.67;;
4652;SDS011;9900;48.738;9.306;2023-04-29T13:58:48;6.93;;;5.00;;
4652;SDS011;9900;48.738;9.306;2023-04-29T14:01:20;7.17;;;5.53;;
4652;SDS011;9900;48.738;9.306;2023-04-29T14:04:10;6.93;;;5.50;;
4652;SDS011;9900;48.738;9.306;2023-04-29T14:06:38;5.60;;;4.67;;
4652;SDS011;9900;48.738;9.306;2023-04-29T14:09:08;5.80;;;5.20;;
4652;SDS011;9900;48.738;9.306;2023-04-29T14:11:37;5.37;;;4.30;;
4652;SDS011;9900;48.738;9.306;2023-04-29T14:14:06;5.20;;;4.47;;
4652;SDS011;9900;48.738;9.306;2023-04-29T14:16:35;5.83;;;4.10;;
4652;SDS011;9900;48.738;9.306;2023-04-29T14:19:03;5.07;;;4.30;;
4652;SDS011;9900;48.738;9.306;2023-04-29T14:21:32;8.13;;;4.53;;
4652;SDS011;9900;48.738;9.306;2023-04-29T14:24:01;6.10;;;4.23;;
4652;SDS011;9900;48.738;9.306;2023-04-29T14:26:32;7.47;;;4.87;;
4652;SDS011;9900;48.738;9.306;2023-04-29T14:29:00;5.90;;;4.83;;
4652;SDS011;9900;48.738;9.306;2023-04-29T14:31:30;7.20;;;3.80;;
4652;SDS011;9900;48.738;9.306;2023-04-29T14:34:02;6.50;;;4.80;;
4652;SDS011;9900;48.738;9.306;2023-04-29T14:36:31;5.33;;;4.73;;
4652;SDS011;9900;48.738;9.306;2023-04-29T14:39:00;6.70;;;4.80;;
4652;SDS011;9900;48.738;9.306;2023-04-29T14:41:31;5.90;;;5.00;;
4652;SDS011;9900;48.738;9.306;2023-04-29T14:44:00;5.53;;;4.90;;
4652;SDS011;9900;48.738;9.306;2023-04-29T14:46:29;5.17;;;4.20;;
4652;SDS011;9900;48.738;9.306;2023-04-29T14:48:58;5.67;;;5.07;;
4652;SDS011;9900;48.738;9.306;2023-04-29T14:51:28;4.90;;;3.97;;
4652;SDS011;9900;48.738;9.306;2023-04-29T14:53:57;7.60;;;4.47;;
4652;SDS011;9900;48.738;9.306;2023-04-29T14:56:25;8.50;;;5.20;;
4652;SDS011;9900;48.738;9.306;2023-04-29T14:58:56;6.43;;;4.47;;
4652;SDS011;9900;48.738;9.306;2023-04-29T15:01:24;5.37;;;4.17;;
4652;SDS011;9900;48.738;9.306;2023-04-29T15:03:56;6.63;;;5.40;;
4652;SDS011;9900;48.738;9.306;2023-04-29T15:06:24;8.53;;;5.07;;
4652;SDS011;9900;48.738;9.306;2023-04-29T15:08:54;6.07;;;4.53;;
4652;SDS011;9900;48.738;9.306;2023-04-29T15:11:23;6.53;;;5.27;;
4652;SDS011;9900;48.738;9.306;2023-04-29T15:13:52;5.10;;;4.60;;
4652;SDS011;9900;48.738;9.306;2023-04-29T15:16:22;7.40;;;5.00;;
4652;SDS011;9900;48.738;9.306;2023-04-29T15:18:51;7.00;;;5.77;;
4652;SDS011;9900;48.738;9.306;2023-04-29T15:21:19;6.93;;;5.10;;
4652;SDS011;9900;48.738;9.306;2023-04-29T15:23:48;5.93;;;4.67;;
4652;SDS011;9900;48.738;9.306;2023-04-29T15:26:17;6.30;;;5.00;;
4652;SDS011;9900;48.738;9.306;2023-04-29T15:28:46;5.90;;;5.17;;
4652;SDS011;9900;48.738;9.306;2023-04-29T15:31:14;5.63;;;5.03;;
4652;SDS011;9900;48.738;9.306;2023-04-29T15:33:44;7.60;;;5.80;;